createdAt,value
2019-02-27T00:03:47.346Z,27.97
2019-02-27T00:08:49.943Z,35.60
2019-02-27T00:13:51.721Z,39.90
2019-02-27T00:18:53.773Z,34.40
2019-02-27T00:23:56.880Z,31.30
2019-02-27T00:28:59.303Z,39.20
2019-02-27T00:34:00.979Z,38.50
2019-02-27T00:39:04.196Z,29.77
2019-02-27T00:44:06.720Z,25.10
2019-02-27T00:49:08.475Z,26.30
2019-02-27T00:54:10.158Z,34.20
2019-02-27T00:59:11.844Z,39.63
2019-02-27T01:04:13.454Z,41.30
2019-02-27T01:09:15.310Z,35.07
2019-02-27T01:14:17.076Z,35.80
2019-02-27T01:19:18.759Z,38.07
2019-02-27T01:24:20.844Z,40.10
2019-02-27T01:29:22.554Z,40.90
2019-02-27T01:34:24.534Z,38.70
2019-02-27T01:39:26.197Z,29.93
2019-02-27T01:44:28.182Z,43.93
2019-02-27T01:49:29.854Z,42.27
2019-02-27T01:54:31.635Z,36.37
2019-02-27T01:59:33.731Z,41.23
2019-02-27T02:04:35.598Z,43.80
2019-02-27T02:09:37.761Z,46.30
2019-02-27T02:14:43.225Z,42.87
2019-02-27T02:20:05.401Z,38.87
2019-02-27T02:25:42.796Z,27.37
2019-02-27T02:30:54.427Z,31.10
2019-02-27T02:36:06.073Z,42.47
2019-02-27T02:41:30.589Z,38.03
2019-02-27T02:46:51.194Z,45.73
2019-02-27T02:51:56.494Z,43.23
2019-02-27T02:57:10.592Z,39.23
2019-02-27T03:02:32.563Z,38.77
2019-02-27T03:07:46.781Z,42.90
2019-02-27T03:13:07.130Z,36.93
2019-02-27T03:18:31.565Z,33.83
2019-02-27T03:23:52.049Z,28.97
2019-02-27T03:29:02.037Z,30.67
2019-02-27T03:34:10.401Z,27.90
2019-02-27T03:39:27.262Z,25.10
2019-02-27T03:44:47.449Z,28.40
2019-02-27T03:49:55.735Z,35.37
2019-02-27T03:55:23.417Z,35.43
2019-02-27T04:00:28.752Z,36.53
2019-02-27T04:06:02.605Z,35.00
2019-02-27T04:11:06.056Z,34.30
2019-02-27T04:16:08.152Z,32.50
2019-02-27T04:21:09.768Z,36.50
2019-02-27T04:26:11.636Z,32.97
2019-02-27T04:31:13.283Z,38.43
2019-02-27T04:36:15.285Z,33.63
2019-02-27T04:41:18.120Z,37.63
2019-02-27T04:46:21.702Z,37.43
2019-02-27T04:51:24.351Z,33.07
2019-02-27T04:56:25.955Z,36.87
2019-02-27T05:01:28.533Z,38.03
2019-02-27T05:06:30.150Z,37.10
2019-02-27T05:11:32.182Z,40.30
2019-02-27T05:16:33.839Z,38.77
2019-02-27T05:21:35.585Z,36.10
2019-02-27T05:26:38.100Z,38.17
2019-02-27T05:31:40.382Z,34.67
2019-02-27T05:36:42.373Z,33.57
2019-02-27T05:41:43.964Z,30.37
2019-02-27T05:46:48.622Z,34.73
2019-02-27T05:51:52.534Z,39.17
2019-02-27T05:56:54.264Z,34.67
2019-02-27T06:01:56.423Z,33.60
2019-02-27T06:06:58.162Z,30.97
2019-02-27T06:11:59.874Z,34.43
2019-02-27T06:17:12.900Z,35.10
2019-02-27T06:22:14.620Z,33.50
2019-02-27T06:27:16.531Z,35.63
2019-02-27T06:32:18.501Z,34.50
2019-02-27T06:37:20.206Z,32.93
2019-02-27T06:42:21.871Z,35.27
2019-02-27T06:47:23.865Z,35.07
2019-02-27T06:52:25.462Z,32.13
2019-02-27T06:57:27.112Z,34.70
2019-02-27T07:02:28.746Z,33.60
2019-02-27T07:07:31.289Z,35.40
2019-02-27T07:12:33.608Z,36.27
2019-02-27T07:17:37.581Z,33.93
2019-02-27T07:22:39.329Z,33.57
2019-02-27T07:27:40.939Z,34.80
2019-02-27T07:32:43.328Z,29.40
2019-02-27T07:37:48.059Z,34.40
2019-02-27T07:42:48.928Z,31.20
2019-02-27T07:47:50.607Z,31.30
2019-02-27T07:52:52.706Z,30.53
2019-02-27T07:57:58.520Z,28.80
2019-02-27T08:02:58.546Z,28.60
2019-02-27T08:08:00.196Z,28.93
2019-02-27T08:13:01.982Z,40.40
2019-02-27T08:18:03.745Z,30.33
2019-02-27T08:23:06.982Z,27.53
2019-02-27T08:28:08.868Z,34.53
2019-02-27T08:33:11.785Z,33.20
2019-02-27T08:38:13.433Z,36.90
2019-02-27T08:43:15.104Z,40.50
2019-02-27T08:48:17.540Z,42.27
2019-02-27T08:53:20.103Z,38.87
2019-02-27T08:58:21.874Z,49.17
2019-02-27T09:03:23.701Z,38.60
2019-02-27T09:08:25.411Z,48.57
2019-02-27T09:13:27.161Z,48.87
2019-02-27T09:18:33.354Z,48.50
2019-02-27T09:23:35.125Z,49.30
2019-02-27T09:28:37.141Z,50.87
2019-02-27T09:33:39.258Z,47.97
2019-02-27T09:38:41.007Z,54.80
2019-02-27T09:43:42.774Z,48.70
2019-02-27T09:48:44.553Z,44.13
2019-02-27T09:53:46.642Z,52.50
2019-02-27T09:58:48.331Z,49.03
2019-02-27T10:03:52.058Z,54.00
2019-02-27T10:08:53.647Z,51.73
2019-02-27T10:13:55.407Z,60.00
2019-02-27T10:18:57.082Z,51.40
2019-02-27T10:23:58.765Z,53.77
2019-02-27T10:29:00.445Z,54.40
2019-02-27T10:34:02.284Z,58.13
2019-02-27T10:39:05.074Z,58.70
2019-02-27T10:44:06.929Z,48.93
2019-02-27T10:49:08.601Z,52.30
2019-02-27T10:54:10.246Z,52.07
2019-02-27T10:59:12.267Z,50.10
2019-02-27T11:04:15.367Z,50.73
2019-02-27T11:09:21.461Z,47.73
2019-02-27T11:14:23.302Z,59.37
2019-02-27T11:19:29.645Z,56.90
2019-02-27T11:24:31.704Z,50.80
2019-02-27T11:29:33.734Z,51.13
2019-02-27T11:34:35.449Z,51.40
2019-02-27T11:39:37.574Z,50.17
2019-02-27T11:44:39.351Z,53.67
2019-02-27T11:49:41.329Z,49.23
2019-02-27T11:54:43.850Z,46.50
2019-02-27T11:59:46.884Z,46.00
2019-02-27T12:04:53.513Z,51.67
2019-02-27T12:09:53.364Z,50.33
2019-02-27T12:14:55.100Z,49.13
2019-02-27T12:19:56.835Z,54.57
2019-02-27T12:24:58.558Z,48.47
2019-02-27T12:30:03.036Z,40.30
2019-02-27T12:35:10.835Z,42.90
2019-02-27T12:40:17.479Z,48.93
2019-02-27T12:45:22.028Z,46.40
2019-02-27T12:50:30.863Z,50.10
2019-02-27T12:55:35.399Z,49.13
2019-02-27T13:00:34.763Z,49.43
2019-02-27T13:05:36.505Z,46.97
2019-02-27T13:10:38.285Z,53.17
2019-02-27T13:15:41.079Z,52.00
2019-02-27T13:20:45.693Z,53.50
2019-02-27T13:25:48.036Z,52.70
2019-02-27T13:30:50.058Z,52.17
2019-02-27T13:35:51.805Z,51.50
2019-02-27T13:40:53.818Z,50.80
2019-02-27T13:45:58.105Z,51.87
2019-02-27T13:51:02.397Z,49.87
2019-02-27T13:56:03.805Z,48.17
2019-02-27T14:01:07.639Z,51.43
2019-02-27T14:06:16.103Z,50.43
2019-02-27T14:11:24.954Z,51.53
2019-02-27T14:16:27.442Z,50.87
2019-02-27T14:21:29.033Z,55.07
2019-02-27T14:26:30.673Z,53.23
2019-02-27T14:31:32.597Z,49.67
2019-02-27T14:36:34.293Z,51.93
2019-02-27T14:41:35.974Z,55.53
2019-02-27T14:46:37.617Z,52.97
2019-02-27T14:51:41.201Z,52.20
2019-02-27T14:56:42.888Z,50.50
2019-02-27T15:01:48.408Z,54.37
2019-02-27T15:06:50.369Z,49.70
2019-02-27T15:11:52.444Z,49.30
2019-02-27T15:16:54.163Z,48.47
2019-02-27T15:21:56.317Z,51.07
2019-02-27T15:26:58.039Z,51.57
2019-02-27T15:32:00.060Z,47.37
2019-02-27T15:37:04.139Z,43.57
2019-02-27T15:42:08.575Z,51.00
2019-02-27T15:47:09.333Z,48.07
2019-02-27T15:52:11.014Z,45.50
2019-02-27T15:57:17.308Z,45.20
2019-02-27T16:02:16.638Z,42.10
2019-02-27T16:07:18.284Z,49.13
2019-02-27T16:12:20.169Z,47.13
2019-02-27T16:17:21.844Z,45.40
2019-02-27T16:22:23.498Z,47.17
2019-02-27T16:27:25.511Z,45.93
2019-02-27T16:32:27.544Z,41.73
2019-02-27T16:37:29.152Z,40.87
2019-02-27T16:42:31.697Z,41.07
2019-02-27T16:47:33.547Z,42.37
2019-02-27T16:52:35.226Z,45.50
2019-02-27T16:57:36.887Z,46.60
2019-02-27T17:02:39.053Z,47.30
2019-02-27T17:07:41.537Z,46.27
2019-02-27T17:12:43.152Z,47.30
2019-02-27T17:17:44.785Z,51.53
2019-02-27T17:22:46.481Z,50.50
2019-02-27T17:27:50.932Z,47.80
2019-02-27T17:32:52.230Z,49.70
2019-02-27T17:37:54.281Z,46.80
2019-02-27T17:42:56.309Z,53.10
2019-02-27T17:47:58.408Z,46.47
2019-02-27T17:53:00.168Z,50.90
2019-02-27T17:58:01.919Z,57.33
2019-02-27T18:03:06.247Z,53.37
2019-02-27T18:08:09.955Z,53.30
2019-02-27T18:13:11.787Z,59.87
2019-02-27T18:18:13.512Z,54.33
2019-02-27T18:23:15.349Z,55.80
2019-02-27T18:28:17.074Z,52.23
2019-02-27T18:33:19.305Z,58.27
2019-02-27T18:38:21.215Z,51.33
2019-02-27T18:43:23.010Z,46.33
2019-02-27T18:48:24.668Z,45.53
2019-02-27T18:53:26.584Z,47.93
2019-02-27T18:58:28.317Z,54.90
2019-02-27T19:03:30.603Z,49.20
2019-02-27T19:08:32.797Z,52.80
2019-02-27T19:13:34.666Z,54.87
2019-02-27T19:18:38.547Z,57.00
2019-02-27T19:23:40.285Z,49.57
2019-02-27T19:28:41.961Z,50.57
2019-02-27T19:33:44.464Z,42.13
2019-02-27T19:38:47.546Z,51.13
2019-02-27T19:43:54.801Z,57.73
2019-02-27T19:48:54.632Z,58.00
2019-02-27T19:53:56.472Z,50.80
2019-02-27T19:58:58.297Z,56.10
2019-02-27T20:04:00.519Z,55.37
2019-02-27T20:09:04.398Z,48.77
2019-02-27T20:14:06.322Z,59.70
2019-02-27T20:19:08.247Z,66.73
2019-02-27T20:24:14.384Z,56.27
2019-02-27T20:29:14.377Z,66.50
2019-02-27T20:34:16.871Z,63.80
2019-02-27T20:39:23.184Z,62.63
2019-02-27T20:44:25.539Z,61.73
2019-02-27T20:49:27.215Z,68.67
2019-02-27T20:54:28.988Z,66.43
2019-02-27T20:59:30.764Z,68.70
2019-02-27T21:04:35.240Z,67.03
2019-02-27T21:09:36.997Z,71.53
2019-02-27T21:14:38.787Z,72.63
2019-02-27T21:19:40.560Z,78.40
2019-02-27T21:24:43.054Z,75.17
2019-02-27T21:29:44.837Z,76.63
2019-02-27T21:34:46.613Z,73.60
2019-02-27T21:39:49.665Z,72.33
2019-02-27T21:44:51.408Z,82.47
2019-02-27T21:49:53.085Z,92.80
2019-02-27T21:54:54.768Z,82.43
2019-02-27T21:59:56.452Z,87.20
2019-02-27T22:04:58.226Z,84.87
2019-02-27T22:10:00.643Z,89.47
2019-02-27T22:15:04.253Z,101.93
2019-02-27T22:20:07.154Z,95.07
2019-02-27T22:25:10.876Z,104.90
2019-02-27T22:30:15.152Z,104.50
2019-02-27T22:35:16.869Z,99.03
2019-02-27T22:40:21.124Z,98.67
2019-02-27T22:45:22.781Z,117.47
2019-02-27T22:50:25.008Z,109.97
2019-02-27T22:55:26.772Z,122.97
2019-02-27T23:00:56.256Z,102.70
2019-02-27T23:05:58.556Z,113.60
2019-02-27T23:11:02.972Z,117.23
2019-02-27T23:16:04.819Z,109.47
2019-02-27T23:21:06.514Z,108.00
2019-02-27T23:26:08.286Z,113.30
2019-02-27T23:31:10.027Z,124.60
2019-02-27T23:36:11.885Z,132.00
2019-02-27T23:41:14.118Z,126.87
2019-02-27T23:46:18.466Z,136.43
2019-02-27T23:51:20.250Z,137.23
2019-02-27T23:56:21.964Z,118.87
